sensor_id;sensor_type;location;lat;lon;timestamp;temperature;humidity
20833;DHT22;56075;51.264;7.150;2023-07-22T00:01:28;13.80;99.90
20833;DHT22;56075;51.264;7.150;2023-07-22T00:03:59;14.30;99.90
20833;DHT22;56075;51.264;7.150;2023-07-22T00:06:30;13.50;99.90
20833;DHT22;56075;51.264;7.150;2023-07-22T00:09:01;13.00;99.90
20833;DHT22;56075;51.264;7.150;2023-07-22T00:11:33;13.10;99.90
20833;DHT22;56075;51.264;7.150;2023-07-22T00:14:04;13.50;99.90
20833;DHT22;56075;51.264;7.150;2023-07-22T00:16:37;14.00;99.90
20833;DHT22;56075;51.264;7.150;2023-07-22T00:19:08;12.80;99.90
20833;DHT22;56075;51.264;7.150;2023-07-22T00:21:39;12.80;99.90
20833;DHT22;56075;51.264;7.150;2023-07-22T00:24:11;13.90;99.90
20833;DHT22;56075;51.264;7.150;2023-07-22T00:26:42;13.50;99.90
20833;DHT22;56075;51.264;7.150;2023-07-22T00:29:13;12.90;99.90
20833;DHT22;56075;51.264;7.150;2023-07-22T00:31:45;12.70;99.90
20833;DHT22;56075;51.264;7.150;2023-07-22T00:34:16;12.80;99.90
20833;DHT22;56075;51.264;7.150;2023-07-22T00:36:47;12.80;99.90
20833;DHT22;56075;51.264;7.150;2023-07-22T00:39:18;12.70;99.90
20833;DHT22;56075;51.264;7.150;2023-07-22T00:41:51;14.00;99.90
20833;DHT22;56075;51.264;7.150;2023-07-22T00:44:22;13.00;99.90
20833;DHT22;56075;51.264;7.150;2023-07-22T00:46:54;14.20;99.90
20833;DHT22;56075;51.264;7.150;2023-07-22T00:49:27;13.60;99.90
20833;DHT22;56075;51.264;7.150;2023-07-22T00:52:01;13.00;99.90
20833;DHT22;56075;51.264;7.150;2023-07-22T00:54:33;14.60;99.90
20833;DHT22;56075;51.264;7.150;2023-07-22T00:57:06;13.30;99.90
20833;DHT22;56075;51.264;7.150;2023-07-22T00:59:38;13.10;99.90
20833;DHT22;56075;51.264;7.150;2023-07-22T01:02:10;13.40;99.90
20833;DHT22;56075;51.264;7.150;2023-07-22T01:04:41;14.30;99.90
20833;DHT22;56075;51.264;7.150;2023-07-22T01:07:13;13.10;99.90
20833;DHT22;56075;51.264;7.150;2023-07-22T01:09:44;14.30;99.90
20833;DHT22;56075;51.264;7.150;2023-07-22T01:12:16;13.30;99.90
20833;DHT22;56075;51.264;7.150;2023-07-22T01:14:47;13.10;99.90
20833;DHT22;56075;51.264;7.150;2023-07-22T01:17:18;13.80;99.90
20833;DHT22;56075;51.264;7.150;2023-07-22T01:19:50;14.50;99.90
20833;DHT22;56075;51.264;7.150;2023-07-22T01:22:22;13.90;99.90
20833;DHT22;56075;51.264;7.150;2023-07-22T01:24:54;13.90;99.90
20833;DHT22;56075;51.264;7.150;2023-07-22T01:27:25;13.90;99.90
20833;DHT22;56075;51.264;7.150;2023-07-22T01:29:56;13.50;99.90
20833;DHT22;56075;51.264;7.150;2023-07-22T01:32:28;14.70;99.90
20833;DHT22;56075;51.264;7.150;2023-07-22T01:34:59;13.50;99.90
20833;DHT22;56075;51.264;7.150;2023-07-22T01:37:30;13.40;99.90
20833;DHT22;56075;51.264;7.150;2023-07-22T01:40:03;13.40;99.90
20833;DHT22;56075;51.264;7.150;2023-07-22T01:42:42;13.40;99.90
20833;DHT22;56075;51.264;7.150;2023-07-22T01:45:14;13.40;99.90
20833;DHT22;56075;51.264;7.150;2023-07-22T01:47:45;13.50;99.90
20833;DHT22;56075;51.264;7.150;2023-07-22T01:50:16;14.70;99.90
20833;DHT22;56075;51.264;7.150;2023-07-22T01:52:49;13.30;99.90
20833;DHT22;56075;51.264;7.150;2023-07-22T01:55:21;13.40;99.90
20833;DHT22;56075;51.264;7.150;2023-07-22T01:57:54;13.50;99.90
20833;DHT22;56075;51.264;7.150;2023-07-22T02:00:25;15.00;99.90
20833;DHT22;56075;51.264;7.150;2023-07-22T02:02:57;13.50;99.90
20833;DHT22;56075;51.264;7.150;2023-07-22T02:05:28;13.30;99.90
20833;DHT22;56075;51.264;7.150;2023-07-22T02:08:01;14.10;99.90
20833;DHT22;56075;51.264;7.150;2023-07-22T02:10:32;13.40;99.90
20833;DHT22;56075;51.264;7.150;2023-07-22T02:13:03;14.90;99.90
20833;DHT22;56075;51.264;7.150;2023-07-22T02:15:36;14.50;99.90
20833;DHT22;56075;51.264;7.150;2023-07-22T02:18:07;13.90;99.90
20833;DHT22;56075;51.264;7.150;2023-07-22T02:20:42;14.70;99.90
20833;DHT22;56075;51.264;7.150;2023-07-22T02:23:13;13.50;99.90
20833;DHT22;56075;51.264;7.150;2023-07-22T02:25:44;13.70;99.90
20833;DHT22;56075;51.264;7.150;2023-07-22T02:28:15;14.20;99.90
20833;DHT22;56075;51.264;7.150;2023-07-22T02:30:50;14.90;99.90
20833;DHT22;56075;51.264;7.150;2023-07-22T02:33:23;13.80;99.90
20833;DHT22;56075;51.264;7.150;2023-07-22T02:35:56;13.70;99.90
20833;DHT22;56075;51.264;7.150;2023-07-22T02:38:27;13.90;99.90
20833;DHT22;56075;51.264;7.150;2023-07-22T02:41:05;14.00;99.90
20833;DHT22;56075;51.264;7.150;2023-07-22T02:43:38;14.00;99.90
20833;DHT22;56075;51.264;7.150;2023-07-22T02:46:11;15.30;99.90
20833;DHT22;56075;51.264;7.150;2023-07-22T02:48:42;14.20;99.90
20833;DHT22;56075;51.264;7.150;2023-07-22T02:51:14;14.20;99.90
20833;DHT22;56075;51.264;7.150;2023-07-22T02:53:45;14.20;99.90
20833;DHT22;56075;51.264;7.150;2023-07-22T02:56:17;14.10;99.90
20833;DHT22;56075;51.264;7.150;2023-07-22T02:58:49;14.20;99.90
20833;DHT22;56075;51.264;7.150;2023-07-22T03:01:20;15.30;99.90
20833;DHT22;56075;51.264;7.150;2023-07-22T03:03:51;14.80;99.90
20833;DHT22;56075;51.264;7.150;2023-07-22T03:06:22;14.30;99.90
20833;DHT22;56075;51.264;7.150;2023-07-22T03:08:54;14.30;99.90
20833;DHT22;56075;51.264;7.150;2023-07-22T03:11:25;13.40;99.90
20833;DHT22;56075;51.264;7.150;2023-07-22T03:13:56;14.50;99.90
20833;DHT22;56075;51.264;7.150;2023-07-22T03:16:27;14.60;99.90
20833;DHT22;56075;51.264;7.150;2023-07-22T03:18:58;14.60;99.90
20833;DHT22;56075;51.264;7.150;2023-07-22T03:21:29;14.50;99.90
20833;DHT22;56075;51.264;7.150;2023-07-22T03:24:00;15.00;99.90
20833;DHT22;56075;51.264;7.150;2023-07-22T03:26:32;15.10;99.90
20833;DHT22;56075;51.264;7.150;2023-07-22T03:29:03;14.60;99.90
20833;DHT22;56075;51.264;7.150;2023-07-22T03:31:36;16.00;99.90
20833;DHT22;56075;51.264;7.150;2023-07-22T03:34:07;15.10;99.90
20833;DHT22;56075;51.264;7.150;2023-07-22T03:36:38;14.60;99.90
20833;DHT22;56075;51.264;7.150;2023-07-22T03:39:09;15.30;99.90
20833;DHT22;56075;51.264;7.150;2023-07-22T03:41:40;14.70;99.90
20833;DHT22;56075;51.264;7.150;2023-07-22T03:44:11;14.80;99.90
20833;DHT22;56075;51.264;7.150;2023-07-22T03:46:43;14.70;99.90
20833;DHT22;56075;51.264;7.150;2023-07-22T03:49:14;15.00;99.90
20833;DHT22;56075;51.264;7.150;2023-07-22T03:51:46;16.50;99.90
20833;DHT22;56075;51.264;7.150;2023-07-22T03:54:17;15.60;99.90
20833;DHT22;56075;51.264;7.150;2023-07-22T03:56:48;14.70;99.90
20833;DHT22;56075;51.264;7.150;2023-07-22T03:59:19;14.80;99.90
20833;DHT22;56075;51.264;7.150;2023-07-22T04:01:50;15.30;99.90
20833;DHT22;56075;51.264;7.150;2023-07-22T04:04:22;15.80;99.90
20833;DHT22;56075;51.264;7.150;2023-07-22T04:06:53;15.90;99.90
20833;DHT22;56075;51.264;7.150;2023-07-22T04:09:26;14.90;99.90
20833;DHT22;56075;51.264;7.150;2023-07-22T04:11:57;15.30;99.90
20833;DHT22;56075;51.264;7.150;2023-07-22T04:14:29;16.00;99.90
20833;DHT22;56075;51.264;7.150;2023-07-22T04:17:04;15.40;99.90
20833;DHT22;56075;51.264;7.150;2023-07-22T04:19:36;14.90;99.90
20833;DHT22;56075;51.264;7.150;2023-07-22T04:22:07;16.40;99.90
20833;DHT22;56075;51.264;7.150;2023-07-22T04:24:38;16.10;99.90
20833;DHT22;56075;51.264;7.150;2023-07-22T04:27:10;14.90;99.90
20833;DHT22;56075;51.264;7.150;2023-07-22T04:29:41;15.20;99.90
20833;DHT22;56075;51.264;7.150;2023-07-22T04:32:12;15.20;99.90
20833;DHT22;56075;51.264;7.150;2023-07-22T04:34:44;16.00;99.90
20833;DHT22;56075;51.264;7.150;2023-07-22T04:37:15;14.90;99.90
20833;DHT22;56075;51.264;7.150;2023-07-22T04:39:49;14.80;99.90
20833;DHT22;56075;51.264;7.150;2023-07-22T04:42:20;14.80;99.90
20833;DHT22;56075;51.264;7.150;2023-07-22T04:44:51;14.90;99.90
20833;DHT22;56075;51.264;7.150;2023-07-22T04:47:22;14.90;99.90
20833;DHT22;56075;51.264;7.150;2023-07-22T04:49:54;14.90;99.90
20833;DHT22;56075;51.264;7.150;2023-07-22T04:52:25;15.20;99.90
20833;DHT22;56075;51.264;7.150;2023-07-22T04:54:56;14.80;99.90
20833;DHT22;56075;51.264;7.150;2023-07-22T04:57:27;15.00;99.90
20833;DHT22;56075;51.264;7.150;2023-07-22T04:59:58;15.20;99.90
20833;DHT22;56075;51.264;7.150;2023-07-22T05:02:30;15.20;99.90
20833;DHT22;56075;51.264;7.150;2023-07-22T05:05:01;15.10;99.90
20833;DHT22;56075;51.264;7.150;2023-07-22T05:07:33;15.30;99.90
20833;DHT22;56075;51.264;7.150;2023-07-22T05:10:05;15.80;99.90
20833;DHT22;56075;51.264;7.150;2023-07-22T05:12:38;15.10;99.90
20833;DHT22;56075;51.264;7.150;2023-07-22T05:15:11;15.60;99.90
20833;DHT22;56075;51.264;7.150;2023-07-22T05:17:42;15.20;99.90
20833;DHT22;56075;51.264;7.150;2023-07-22T05:20:13;16.30;99.90
20833;DHT22;56075;51.264;7.150;2023-07-22T05:22:44;16.10;99.90
20833;DHT22;56075;51.264;7.150;2023-07-22T05:25:15;15.30;99.90
20833;DHT22;56075;51.264;7.150;2023-07-22T05:27:47;15.90;99.90
20833;DHT22;56075;51.264;7.150;2023-07-22T05:30:18;15.80;99.90
20833;DHT22;56075;51.264;7.150;2023-07-22T05:32:52;15.50;99.90
20833;DHT22;56075;51.264;7.150;2023-07-22T05:35:23;16.10;99.90
20833;DHT22;56075;51.264;7.150;2023-07-22T05:37:54;15.40;99.90
20833;DHT22;56075;51.264;7.150;2023-07-22T05:40:25;15.60;99.90
20833;DHT22;56075;51.264;7.150;2023-07-22T05:42:57;15.30;99.90
20833;DHT22;56075;51.264;7.150;2023-07-22T05:45:28;15.30;99.90
20833;DHT22;56075;51.264;7.150;2023-07-22T05:47:59;15.40;99.90
20833;DHT22;56075;51.264;7.150;2023-07-22T05:50:30;16.00;99.90
20833;DHT22;56075;51.264;7.150;2023-07-22T05:53:01;15.40;99.90
20833;DHT22;56075;51.264;7.150;2023-07-22T05:55:32;16.50;99.90
20833;DHT22;56075;51.264;7.150;2023-07-22T05:58:03;15.50;99.90
20833;DHT22;56075;51.264;7.150;2023-07-22T06:00:38;15.70;99.90
20833;DHT22;56075;51.264;7.150;2023-07-22T06:03:10;15.30;99.90
20833;DHT22;56075;51.264;7.150;2023-07-22T06:05:41;15.60;99.90
20833;DHT22;56075;51.264;7.150;2023-07-22T06:08:12;15.40;99.90
20833;DHT22;56075;51.264;7.150;2023-07-22T06:10:43;15.40;99.90
20833;DHT22;56075;51.264;7.150;2023-07-22T06:13:14;15.50;99.90
20833;DHT22;56075;51.264;7.150;2023-07-22T06:15:45;15.40;99.90
20833;DHT22;56075;51.264;7.150;2023-07-22T06:18:17;16.30;99.90
20833;DHT22;56075;51.264;7.150;2023-07-22T06:20:48;17.10;99.90
20833;DHT22;56075;51.264;7.150;2023-07-22T06:23:19;16.20;99.90
20833;DHT22;56075;51.264;7.150;2023-07-22T06:25:50;16.90;99.90
20833;DHT22;56075;51.264;7.150;2023-07-22T06:28:21;15.90;99.90
20833;DHT22;56075;51.264;7.150;2023-07-22T06:30:52;16.50;99.90
20833;DHT22;56075;51.264;7.150;2023-07-22T06:33:23;16.20;99.90
20833;DHT22;56075;51.264;7.150;2023-07-22T06:35:55;16.20;99.90
20833;DHT22;56075;51.264;7.150;2023-07-22T06:38:26;16.20;99.90
20833;DHT22;56075;51.264;7.150;2023-07-22T06:40:57;16.40;99.90
20833;DHT22;56075;51.264;7.150;2023-07-22T06:43:28;16.70;99.90
20833;DHT22;56075;51.264;7.150;2023-07-22T06:45:59;16.70;99.90
20833;DHT22;56075;51.264;7.150;2023-07-22T06:48:31;17.40;99.90
20833;DHT22;56075;51.264;7.150;2023-07-22T06:51:02;16.90;99.90
20833;DHT22;56075;51.264;7.150;2023-07-22T06:53:34;16.80;99.90
20833;DHT22;56075;51.264;7.150;2023-07-22T06:56:05;17.40;99.90
20833;DHT22;56075;51.264;7.150;2023-07-22T06:58:36;17.80;99.90
20833;DHT22;56075;51.264;7.150;2023-07-22T07:01:07;17.30;99.90
20833;DHT22;56075;51.264;7.150;2023-07-22T07:03:38;17.30;99.90
20833;DHT22;56075;51.264;7.150;2023-07-22T07:06:10;17.40;99.90
20833;DHT22;56075;51.264;7.150;2023-07-22T07:08:42;17.20;99.90
20833;DHT22;56075;51.264;7.150;2023-07-22T07:11:13;17.50;99.90
20833;DHT22;56075;51.264;7.150;2023-07-22T07:13:44;17.80;99.90
20833;DHT22;56075;51.264;7.150;2023-07-22T07:16:26;17.50;99.90
20833;DHT22;56075;51.264;7.150;2023-07-22T07:18:59;17.60;99.90
20833;DHT22;56075;51.264;7.150;2023-07-22T07:21:31;17.50;99.90
20833;DHT22;56075;51.264;7.150;2023-07-22T07:24:02;18.90;99.90
20833;DHT22;56075;51.264;7.150;2023-07-22T07:26:33;17.60;99.90
20833;DHT22;56075;51.264;7.150;2023-07-22T07:29:05;17.60;99.90
20833;DHT22;56075;51.264;7.150;2023-07-22T07:31:37;18.50;99.90
20833;DHT22;56075;51.264;7.150;2023-07-22T07:34:08;17.50;99.90
20833;DHT22;56075;51.264;7.150;2023-07-22T07:36:39;17.70;99.90
20833;DHT22;56075;51.264;7.150;2023-07-22T07:39:10;17.40;99.90
20833;DHT22;56075;51.264;7.150;2023-07-22T07:41:42;17.60;99.90
20833;DHT22;56075;51.264;7.150;2023-07-22T07:44:13;17.70;99.90
20833;DHT22;56075;51.264;7.150;2023-07-22T07:46:44;17.70;99.90
20833;DHT22;56075;51.264;7.150;2023-07-22T07:49:15;17.80;99.90
20833;DHT22;56075;51.264;7.150;2023-07-22T07:51:46;17.70;99.90
20833;DHT22;56075;51.264;7.150;2023-07-22T07:54:17;17.70;99.90
20833;DHT22;56075;51.264;7.150;2023-07-22T07:56:48;17.80;99.90
20833;DHT22;56075;51.264;7.150;2023-07-22T07:59:19;17.70;99.90
20833;DHT22;56075;51.264;7.150;2023-07-22T08:01:50;17.80;99.90
20833;DHT22;56075;51.264;7.150;2023-07-22T08:04:22;18.80;99.90
20833;DHT22;56075;51.264;7.150;2023-07-22T08:06:54;18.00;99.90
20833;DHT22;56075;51.264;7.150;2023-07-22T08:09:25;18.10;99.90
20833;DHT22;56075;51.264;7.150;2023-07-22T08:11:56;18.80;99.90
20833;DHT22;56075;51.264;7.150;2023-07-22T08:14:27;18.50;99.90
20833;DHT22;56075;51.264;7.150;2023-07-22T08:16:58;18.50;99.90
20833;DHT22;56075;51.264;7.150;2023-07-22T08:19:30;19.20;99.90
20833;DHT22;56075;51.264;7.150;2023-07-22T08:22:01;18.50;99.90
20833;DHT22;56075;51.264;7.150;2023-07-22T08:24:32;18.50;99.90
20833;DHT22;56075;51.264;7.150;2023-07-22T08:27:03;18.70;99.90
20833;DHT22;56075;51.264;7.150;2023-07-22T08:29:35;18.70;99.90
20833;DHT22;56075;51.264;7.150;2023-07-22T08:32:06;18.70;99.90
20833;DHT22;56075;51.264;7.150;2023-07-22T08:34:37;18.60;99.90
20833;DHT22;56075;51.264;7.150;2023-07-22T08:37:08;18.70;99.90
20833;DHT22;56075;51.264;7.150;2023-07-22T08:39:40;18.60;99.90
20833;DHT22;56075;51.264;7.150;2023-07-22T08:42:11;18.60;99.90
20833;DHT22;56075;51.264;7.150;2023-07-22T08:44:46;18.60;99.90
20833;DHT22;56075;51.264;7.150;2023-07-22T08:47:19;18.70;99.90
20833;DHT22;56075;51.264;7.150;2023-07-22T08:49:52;18.80;99.90
20833;DHT22;56075;51.264;7.150;2023-07-22T08:52:24;19.50;99.90
20833;DHT22;56075;51.264;7.150;2023-07-22T08:54:56;18.90;99.90
20833;DHT22;56075;51.264;7.150;2023-07-22T08:57:29;18.90;99.90
20833;DHT22;56075;51.264;7.150;2023-07-22T09:00:01;19.00;99.90
20833;DHT22;56075;51.264;7.150;2023-07-22T09:02:34;18.90;99.90
20833;DHT22;56075;51.264;7.150;2023-07-22T09:05:06;19.20;99.90
20833;DHT22;56075;51.264;7.150;2023-07-22T09:07:38;19.10;99.90
20833;DHT22;56075;51.264;7.150;2023-07-22T09:10:09;19.00;99.90
20833;DHT22;56075;51.264;7.150;2023-07-22T09:12:42;19.20;99.90
20833;DHT22;56075;51.264;7.150;2023-07-22T09:15:13;19.00;99.90
20833;DHT22;56075;51.264;7.150;2023-07-22T09:17:45;19.10;99.90
20833;DHT22;56075;51.264;7.150;2023-07-22T09:20:17;19.10;99.90
20833;DHT22;56075;51.264;7.150;2023-07-22T09:22:50;19.80;99.90
20833;DHT22;56075;51.264;7.150;2023-07-22T09:25:26;19.70;99.90
20833;DHT22;56075;51.264;7.150;2023-07-22T09:28:01;18.90;99.90
20833;DHT22;56075;51.264;7.150;2023-07-22T09:30:37;19.10;99.90
20833;DHT22;56075;51.264;7.150;2023-07-22T09:33:35;19.10;99.90
20833;DHT22;56075;51.264;7.150;2023-07-22T09:36:07;19.30;99.90
20833;DHT22;56075;51.264;7.150;2023-07-22T09:38:40;19.60;99.90
20833;DHT22;56075;51.264;7.150;2023-07-22T09:41:11;19.50;99.90
20833;DHT22;56075;51.264;7.150;2023-07-22T09:43:47;20.30;99.90
20833;DHT22;56075;51.264;7.150;2023-07-22T09:46:19;20.10;99.90
20833;DHT22;56075;51.264;7.150;2023-07-22T09:48:50;20.10;99.90
20833;DHT22;56075;51.264;7.150;2023-07-22T09:51:21;20.50;99.90
20833;DHT22;56075;51.264;7.150;2023-07-22T09:54:03;20.50;99.90
20833;DHT22;56075;51.264;7.150;2023-07-22T09:56:46;20.70;99.90
20833;DHT22;56075;51.264;7.150;2023-07-22T09:59:18;20.80;99.80
20833;DHT22;56075;51.264;7.150;2023-07-22T10:01:51;21.20;99.90
20833;DHT22;56075;51.264;7.150;2023-07-22T10:04:25;21.20;99.30
20833;DHT22;56075;51.264;7.150;2023-07-22T10:06:58;21.50;98.70
20833;DHT22;56075;51.264;7.150;2023-07-22T10:09:30;21.50;98.30
20833;DHT22;56075;51.264;7.150;2023-07-22T10:12:02;21.70;97.50
20833;DHT22;56075;51.264;7.150;2023-07-22T10:14:35;21.00;97.50
20833;DHT22;56075;51.264;7.150;2023-07-22T10:17:06;20.80;97.50
20833;DHT22;56075;51.264;7.150;2023-07-22T10:19:38;21.60;98.00
20833;DHT22;56075;51.264;7.150;2023-07-22T10:22:10;20.70;97.70
20833;DHT22;56075;51.264;7.150;2023-07-22T10:24:43;20.70;97.70
20833;DHT22;56075;51.264;7.150;2023-07-22T10:27:16;20.70;97.50
20833;DHT22;56075;51.264;7.150;2023-07-22T10:29:48;20.70;97.20
20833;DHT22;56075;51.264;7.150;2023-07-22T10:32:19;20.50;97.30
20833;DHT22;56075;51.264;7.150;2023-07-22T10:34:50;20.50;97.40
20833;DHT22;56075;51.264;7.150;2023-07-22T10:37:29;20.50;97.20
20833;DHT22;56075;51.264;7.150;2023-07-22T10:40:28;20.40;96.70
20833;DHT22;56075;51.264;7.150;2023-07-22T10:43:03;20.30;95.90
20833;DHT22;56075;51.264;7.150;2023-07-22T10:45:41;20.60;96.70
20833;DHT22;56075;51.264;7.150;2023-07-22T10:48:13;20.60;96.40
20833;DHT22;56075;51.264;7.150;2023-07-22T10:56:19;20.40;95.60
20833;DHT22;56075;51.264;7.150;2023-07-22T11:04:23;20.90;95.00
20833;DHT22;56075;51.264;7.150;2023-07-22T11:07:05;20.70;94.30
20833;DHT22;56075;51.264;7.150;2023-07-22T11:09:38;20.80;94.80
20833;DHT22;56075;51.264;7.150;2023-07-22T11:12:13;20.80;94.50
20833;DHT22;56075;51.264;7.150;2023-07-22T11:15:06;20.80;94.30
20833;DHT22;56075;51.264;7.150;2023-07-22T11:17:38;21.10;94.10
20833;DHT22;56075;51.264;7.150;2023-07-22T11:20:09;21.10;94.40
20833;DHT22;56075;51.264;7.150;2023-07-22T11:22:41;21.20;94.30
20833;DHT22;56075;51.264;7.150;2023-07-22T11:25:18;21.70;94.20
20833;DHT22;56075;51.264;7.150;2023-07-22T11:27:49;21.40;93.80
20833;DHT22;56075;51.264;7.150;2023-07-22T11:30:24;21.40;93.70
20833;DHT22;56075;51.264;7.150;2023-07-22T11:32:58;21.30;93.30
20833;DHT22;56075;51.264;7.150;2023-07-22T11:35:29;21.60;92.70
20833;DHT22;56075;51.264;7.150;2023-07-22T11:38:02;21.60;92.30
20833;DHT22;56075;51.264;7.150;2023-07-22T11:40:34;21.60;92.00
20833;DHT22;56075;51.264;7.150;2023-07-22T11:43:05;21.80;91.80
20833;DHT22;56075;51.264;7.150;2023-07-22T11:45:38;22.60;91.50
20833;DHT22;56075;51.264;7.150;2023-07-22T11:48:11;22.00;91.20
20833;DHT22;56075;51.264;7.150;2023-07-22T11:50:43;22.30;91.10
20833;DHT22;56075;51.264;7.150;2023-07-22T11:53:14;22.10;90.70
20833;DHT22;56075;51.264;7.150;2023-07-22T11:55:47;22.00;90.50
20833;DHT22;56075;51.264;7.150;2023-07-22T11:58:27;23.00;90.60
20833;DHT22;56075;51.264;7.150;2023-07-22T12:01:10;23.70;90.40
20833;DHT22;56075;51.264;7.150;2023-07-22T12:03:42;23.40;89.10
20833;DHT22;56075;51.264;7.150;2023-07-22T12:06:14;23.20;89.00
20833;DHT22;56075;51.264;7.150;2023-07-22T12:08:47;22.80;88.10
20833;DHT22;56075;51.264;7.150;2023-07-22T12:11:19;24.80;88.30
20833;DHT22;56075;51.264;7.150;2023-07-22T12:14:11;22.70;86.40
20833;DHT22;56075;51.264;7.150;2023-07-22T12:16:42;22.80;85.60
20833;DHT22;56075;51.264;7.150;2023-07-22T12:19:13;23.10;86.30
20833;DHT22;56075;51.264;7.150;2023-07-22T12:21:44;23.50;85.50
20833;DHT22;56075;51.264;7.150;2023-07-22T12:24:16;23.60;84.50
20833;DHT22;56075;51.264;7.150;2023-07-22T12:26:47;23.70;83.70
20833;DHT22;56075;51.264;7.150;2023-07-22T12:29:18;23.70;83.70
20833;DHT22;56075;51.264;7.150;2023-07-22T12:31:49;24.00;83.70
20833;DHT22;56075;51.264;7.150;2023-07-22T12:34:20;24.70;82.80
20833;DHT22;56075;51.264;7.150;2023-07-22T12:36:51;24.90;81.60
20833;DHT22;56075;51.264;7.150;2023-07-22T12:39:23;25.40;81.50
20833;DHT22;56075;51.264;7.150;2023-07-22T12:41:54;24.60;80.50
20833;DHT22;56075;51.264;7.150;2023-07-22T12:44:25;24.90;80.30
20833;DHT22;56075;51.264;7.150;2023-07-22T12:46:56;25.50;80.50
20833;DHT22;56075;51.264;7.150;2023-07-22T12:49:27;26.20;80.10
20833;DHT22;56075;51.264;7.150;2023-07-22T12:51:59;25.30;79.30
20833;DHT22;56075;51.264;7.150;2023-07-22T12:54:38;25.00;79.00
20833;DHT22;56075;51.264;7.150;2023-07-22T12:57:09;25.30;78.00
20833;DHT22;56075;51.264;7.150;2023-07-22T12:59:40;25.60;76.30
20833;DHT22;56075;51.264;7.150;2023-07-22T13:02:11;26.00;77.10
20833;DHT22;56075;51.264;7.150;2023-07-22T13:04:43;25.90;75.60
20833;DHT22;56075;51.264;7.150;2023-07-22T13:07:15;26.20;74.20
20833;DHT22;56075;51.264;7.150;2023-07-22T13:09:46;26.70;72.40
20833;DHT22;56075;51.264;7.150;2023-07-22T13:12:19;26.60;72.00
20833;DHT22;56075;51.264;7.150;2023-07-22T13:14:50;26.50;70.90
20833;DHT22;56075;51.264;7.150;2023-07-22T13:17:21;26.50;69.60
20833;DHT22;56075;51.264;7.150;2023-07-22T13:19:52;26.10;69.80
20833;DHT22;56075;51.264;7.150;2023-07-22T13:22:24;25.90;70.40
20833;DHT22;56075;51.264;7.150;2023-07-22T13:24:55;25.90;70.60
20833;DHT22;56075;51.264;7.150;2023-07-22T13:27:26;25.70;69.80
20833;DHT22;56075;51.264;7.150;2023-07-22T13:29:57;26.10;70.30
20833;DHT22;56075;51.264;7.150;2023-07-22T13:32:28;25.80;69.70
20833;DHT22;56075;51.264;7.150;2023-07-22T13:34:59;25.80;69.90
20833;DHT22;56075;51.264;7.150;2023-07-22T13:37:31;26.30;70.80
20833;DHT22;56075;51.264;7.150;2023-07-22T13:40:02;26.20;70.70
20833;DHT22;56075;51.264;7.150;2023-07-22T13:42:39;26.40;70.20
20833;DHT22;56075;51.264;7.150;2023-07-22T13:45:12;26.90;69.60
20833;DHT22;56075;51.264;7.150;2023-07-22T13:47:43;27.00;68.00
20833;DHT22;56075;51.264;7.150;2023-07-22T13:50:14;26.70;67.90
20833;DHT22;56075;51.264;7.150;2023-07-22T13:52:45;26.60;68.60
20833;DHT22;56075;51.264;7.150;2023-07-22T13:55:17;26.90;68.10
20833;DHT22;56075;51.264;7.150;2023-07-22T13:57:48;27.00;67.40
20833;DHT22;56075;51.264;7.150;2023-07-22T14:00:19;26.90;67.30
20833;DHT22;56075;51.264;7.150;2023-07-22T14:02:50;26.80;67.60
20833;DHT22;56075;51.264;7.150;2023-07-22T14:05:21;26.90;67.10
20833;DHT22;56075;51.264;7.150;2023-07-22T14:07:53;27.20;66.90
20833;DHT22;56075;51.264;7.150;2023-07-22T14:10:25;27.30;66.40
20833;DHT22;56075;51.264;7.150;2023-07-22T14:12:56;26.80;66.10
20833;DHT22;56075;51.264;7.150;2023-07-22T14:15:27;26.50;66.30
20833;DHT22;56075;51.264;7.150;2023-07-22T14:17:58;26.20;66.70
20833;DHT22;56075;51.264;7.150;2023-07-22T14:20:29;26.40;66.80
20833;DHT22;56075;51.264;7.150;2023-07-22T14:23:03;26.70;66.60
20833;DHT22;56075;51.264;7.150;2023-07-22T14:25:35;26.50;66.20
20833;DHT22;56075;51.264;7.150;2023-07-22T14:28:06;26.40;66.70
20833;DHT22;56075;51.264;7.150;2023-07-22T14:30:38;26.20;66.40
20833;DHT22;56075;51.264;7.150;2023-07-22T14:33:09;26.90;66.40
20833;DHT22;56075;51.264;7.150;2023-07-22T14:35:40;27.10;65.00
20833;DHT22;56075;51.264;7.150;2023-07-22T14:38:14;27.20;64.70
20833;DHT22;56075;51.264;7.150;2023-07-22T14:40:46;27.10;64.70
20833;DHT22;56075;51.264;7.150;2023-07-22T14:43:17;27.00;64.00
20833;DHT22;56075;51.264;7.150;2023-07-22T14:45:48;26.80;64.50
20833;DHT22;56075;51.264;7.150;2023-07-22T14:48:19;27.10;64.40
20833;DHT22;56075;51.264;7.150;2023-07-22T14:50:50;27.50;64.20
20833;DHT22;56075;51.264;7.150;2023-07-22T14:53:21;27.60;62.90
20833;DHT22;56075;51.264;7.150;2023-07-22T14:55:53;27.90;62.70
20833;DHT22;56075;51.264;7.150;2023-07-22T14:58:24;28.00;62.50
20833;DHT22;56075;51.264;7.150;2023-07-22T15:00:55;28.10;62.40
20833;DHT22;56075;51.264;7.150;2023-07-22T15:03:26;28.10;62.10
20833;DHT22;56075;51.264;7.150;2023-07-22T15:05:57;28.20;61.80
20833;DHT22;56075;51.264;7.150;2023-07-22T15:08:28;28.20;62.00
20833;DHT22;56075;51.264;7.150;2023-07-22T15:11:00;28.40;61.50
20833;DHT22;56075;51.264;7.150;2023-07-22T15:13:32;28.70;61.30
20833;DHT22;56075;51.264;7.150;2023-07-22T15:16:03;28.80;60.90
20833;DHT22;56075;51.264;7.150;2023-07-22T15:18:34;29.00;60.50
20833;DHT22;56075;51.264;7.150;2023-07-22T15:21:06;29.20;60.00
20833;DHT22;56075;51.264;7.150;2023-07-22T15:23:37;29.20;60.00
20833;DHT22;56075;51.264;7.150;2023-07-22T15:26:08;29.10;59.70
20833;DHT22;56075;51.264;7.150;2023-07-22T15:28:39;28.50;60.40
20833;DHT22;56075;51.264;7.150;2023-07-22T15:31:18;28.20;60.90
20833;DHT22;56075;51.264;7.150;2023-07-22T15:33:49;28.10;60.60
20833;DHT22;56075;51.264;7.150;2023-07-22T15:36:20;28.50;61.30
20833;DHT22;56075;51.264;7.150;2023-07-22T15:38:51;28.90;60.60
20833;DHT22;56075;51.264;7.150;2023-07-22T15:41:22;28.90;60.60
20833;DHT22;56075;51.264;7.150;2023-07-22T15:43:54;28.70;60.60
20833;DHT22;56075;51.264;7.150;2023-07-22T15:46:25;28.80;60.10
20833;DHT22;56075;51.264;7.150;2023-07-22T15:48:56;28.60;60.80
20833;DHT22;56075;51.264;7.150;2023-07-22T15:51:28;28.80;60.80
20833;DHT22;56075;51.264;7.150;2023-07-22T15:53:59;28.30;60.10
20833;DHT22;56075;51.264;7.150;2023-07-22T15:56:30;27.90;60.90
20833;DHT22;56075;51.264;7.150;2023-07-22T15:59:01;27.50;61.40
20833;DHT22;56075;51.264;7.150;2023-07-22T16:01:32;27.50;62.00
20833;DHT22;56075;51.264;7.150;2023-07-22T16:04:03;27.50;62.40
20833;DHT22;56075;51.264;7.150;2023-07-22T16:06:35;27.50;62.70
20833;DHT22;56075;51.264;7.150;2023-07-22T16:09:06;27.60;62.80
20833;DHT22;56075;51.264;7.150;2023-07-22T16:11:38;27.40;63.50